sensor_id;sensor_type;location;lat;lon;timestamp;pressure;altitude;pressure_sealevel;temperature;humidity
27334;BME280;14817;57.104;-2.094;2024-01-30T00:02:02;100755.19;;;2.73;100.00
27334;BME280;14817;57.104;-2.094;2024-01-30T00:04:29;100760.13;;;2.64;100.00
27334;BME280;14817;57.104;-2.094;2024-01-30T00:06:56;100762.50;;;2.69;100.00
27334;BME280;14817;57.104;-2.094;2024-01-30T00:09:23;100764.94;;;2.72;100.00
27334;BME280;14817;57.104;-2.094;2024-01-30T00:11:50;100755.97;;;2.75;100.00
27334;BME280;14817;57.104;-2.094;2024-01-30T00:14:17;100747.94;;;2.76;100.00
27334;BME280;14817;57.104;-2.094;2024-01-30T00:16:44;100744.25;;;2.64;100.00
27334;BME280;14817;57.104;-2.094;2024-01-30T00:19:11;100737.94;;;2.53;100.00
27334;BME280;14817;57.104;-2.094;2024-01-30T00:21:38;100744.16;;;2.66;100.00
27334;BME280;14817;57.104;-2.094;2024-01-30T00:24:05;100737.50;;;2.60;100.00
27334;BME280;14817;57.104;-2.094;2024-01-30T00:26:32;100749.06;;;2.72;100.00
27334;BME280;14817;57.104;-2.094;2024-01-30T00:28:59;100737.06;;;2.66;100.00
27334;BME280;14817;57.104;-2.094;2024-01-30T00:31:25;100723.75;;;2.68;100.00
27334;BME280;14817;57.104;-2.094;2024-01-30T00:33:52;100717.19;;;2.61;100.00
27334;BME280;14817;57.104;-2.094;2024-01-30T00:36:19;100708.56;;;2.72;100.00
27334;BME280;14817;57.104;-2.094;2024-01-30T00:38:46;100701.31;;;2.32;100.00
27334;BME280;14817;57.104;-2.094;2024-01-30T00:41:12;100706.16;;;2.40;100.00
27334;BME280;14817;57.104;-2.094;2024-01-30T00:43:39;100701.16;;;2.21;100.00
27334;BME280;14817;57.104;-2.094;2024-01-30T00:46:06;100717.94;;;2.34;100.00
27334;BME280;14817;57.104;-2.094;2024-01-30T00:48:33;100709.47;;;2.43;100.00
27334;BME280;14817;57.104;-2.094;2024-01-30T00:50:59;100700.19;;;2.36;100.00
27334;BME280;14817;57.104;-2.094;2024-01-30T00:53:26;100688.47;;;2.55;100.00
27334;BME280;14817;57.104;-2.094;2024-01-30T00:55:53;100677.75;;;2.43;100.00
27334;BME280;14817;57.104;-2.094;2024-01-30T00:58:19;100673.53;;;2.54;100.00
27334;BME280;14817;57.104;-2.094;2024-01-30T01:00:46;100663.66;;;2.43;100.00
27334;BME280;14817;57.104;-2.094;2024-01-30T01:03:13;100665.00;;;2.36;100.00
27334;BME280;14817;57.104;-2.094;2024-01-30T01:05:40;100670.28;;;2.50;100.00
27334;BME280;14817;57.104;-2.094;2024-01-30T01:08:07;100656.53;;;2.31;100.00
27334;BME280;14817;57.104;-2.094;2024-01-30T01:10:35;100656.84;;;2.39;100.00
27334;BME280;14817;57.104;-2.094;2024-01-30T01:13:02;100660.44;;;2.52;100.00
27334;BME280;14817;57.104;-2.094;2024-01-30T01:15:29;100648.94;;;2.39;100.00
27334;BME280;14817;57.104;-2.094;2024-01-30T01:17:56;100654.19;;;2.53;100.00
27334;BME280;14817;57.104;-2.094;2024-01-30T01:20:23;100645.72;;;2.48;100.00
27334;BME280;14817;57.104;-2.094;2024-01-30T01:22:50;100660.31;;;2.54;100.00
27334;BME280;14817;57.104;-2.094;2024-01-30T01:25:16;100651.09;;;2.47;100.00
27334;BME280;14817;57.104;-2.094;2024-01-30T01:27:43;100654.88;;;2.42;100.00
27334;BME280;14817;57.104;-2.094;2024-01-30T01:30:17;100659.34;;;2.28;100.00
27334;BME280;14817;57.104;-2.094;2024-01-30T01:32:48;100661.69;;;2.32;100.00
27334;BME280;14817;57.104;-2.094;2024-01-30T01:35:22;100666.88;;;2.48;100.00
27334;BME280;14817;57.104;-2.094;2024-01-30T01:37:50;100664.53;;;2.29;100.00
27334;BME280;14817;57.104;-2.094;2024-01-30T01:40:26;100655.72;;;2.43;100.00
27334;BME280;14817;57.104;-2.094;2024-01-30T01:42:54;100662.97;;;2.54;100.00
27334;BME280;14817;57.104;-2.094;2024-01-30T01:45:21;100658.75;;;2.37;100.00
27334;BME280;14817;57.104;-2.094;2024-01-30T01:47:50;100657.75;;;2.25;100.00
27334;BME280;14817;57.104;-2.094;2024-01-30T01:50:18;100656.97;;;2.09;100.00
27334;BME280;14817;57.104;-2.094;2024-01-30T01:52:48;100665.00;;;2.36;100.00
27334;BME280;14817;57.104;-2.094;2024-01-30T01:55:17;100663.31;;;2.20;100.00
27334;BME280;14817;57.104;-2.094;2024-01-30T01:57:45;100654.63;;;2.18;100.00
27334;BME280;14817;57.104;-2.094;2024-01-30T02:00:12;100664.25;;;2.19;100.00
27334;BME280;14817;57.104;-2.094;2024-01-30T02:02:39;100658.59;;;2.11;100.00
27334;BME280;14817;57.104;-2.094;2024-01-30T02:05:07;100655.31;;;2.08;100.00
27334;BME280;14817;57.104;-2.094;2024-01-30T02:07:34;100672.38;;;2.16;100.00
27334;BME280;14817;57.104;-2.094;2024-01-30T02:10:01;100662.94;;;2.12;100.00
27334;BME280;14817;57.104;-2.094;2024-01-30T02:12:30;100662.84;;;2.14;100.00
27334;BME280;14817;57.104;-2.094;2024-01-30T02:14:57;100658.78;;;2.08;100.00
27334;BME280;14817;57.104;-2.094;2024-01-30T02:17:23;100664.16;;;2.21;100.00
27334;BME280;14817;57.104;-2.094;2024-01-30T02:19:50;100646.81;;;1.88;100.00
27334;BME280;14817;57.104;-2.094;2024-01-30T02:22:17;100662.94;;;1.98;100.00
27334;BME280;14817;57.104;-2.094;2024-01-30T02:24:44;100662.75;;;1.87;100.00
27334;BME280;14817;57.104;-2.094;2024-01-30T02:27:11;100670.47;;;1.90;100.00
27334;BME280;14817;57.104;-2.094;2024-01-30T02:29:38;100673.41;;;1.99;100.00
27334;BME280;14817;57.104;-2.094;2024-01-30T02:32:05;100666.25;;;2.01;100.00
27334;BME280;14817;57.104;-2.094;2024-01-30T02:34:32;100656.91;;;2.10;100.00
27334;BME280;14817;57.104;-2.094;2024-01-30T02:36:59;100658.88;;;2.07;100.00
27334;BME280;14817;57.104;-2.094;2024-01-30T02:39:26;100643.03;;;2.07;100.00
27334;BME280;14817;57.104;-2.094;2024-01-30T02:41:53;100644.44;;;1.98;100.00
27334;BME280;14817;57.104;-2.094;2024-01-30T02:44:21;100641.03;;;1.96;100.00
27334;BME280;14817;57.104;-2.094;2024-01-30T02:46:47;100637.47;;;1.97;100.00
27334;BME280;14817;57.104;-2.094;2024-01-30T02:49:14;100620.88;;;1.95;100.00
27334;BME280;14817;57.104;-2.094;2024-01-30T02:51:41;100617.56;;;1.91;100.00
27334;BME280;14817;57.104;-2.094;2024-01-30T02:54:08;100612.28;;;1.77;100.00
27334;BME280;14817;57.104;-2.094;2024-01-30T02:56:35;100624.84;;;1.73;100.00
27334;BME280;14817;57.104;-2.094;2024-01-30T02:59:01;100635.09;;;1.63;100.00
27334;BME280;14817;57.104;-2.094;2024-01-30T03:01:28;100644.06;;;1.75;100.00
27334;BME280;14817;57.104;-2.094;2024-01-30T03:03:55;100642.66;;;1.84;100.00
27334;BME280;14817;57.104;-2.094;2024-01-30T03:06:22;100646.44;;;1.80;100.00
27334;BME280;14817;57.104;-2.094;2024-01-30T03:08:49;100647.75;;;1.87;100.00
27334;BME280;14817;57.104;-2.094;2024-01-30T03:11:16;100644.53;;;1.68;100.00
27334;BME280;14817;57.104;-2.094;2024-01-30T03:13:42;100646.31;;;1.67;100.00
27334;BME280;14817;57.104;-2.094;2024-01-30T03:16:09;100650.16;;;1.61;100.00
27334;BME280;14817;57.104;-2.094;2024-01-30T03:18:36;100660.38;;;1.82;100.00
27334;BME280;14817;57.104;-2.094;2024-01-30T03:21:03;100660.94;;;1.87;100.00
27334;BME280;14817;57.104;-2.094;2024-01-30T03:23:30;100655.94;;;1.82;100.00
27334;BME280;14817;57.104;-2.094;2024-01-30T03:25:58;100655.03;;;1.83;100.00
27334;BME280;14817;57.104;-2.094;2024-01-30T03:28:25;100651.06;;;1.91;100.00
27334;BME280;14817;57.104;-2.094;2024-01-30T03:30:52;100655.56;;;1.89;100.00
27334;BME280;14817;57.104;-2.094;2024-01-30T03:33:19;100656.34;;;1.91;100.00
27334;BME280;14817;57.104;-2.094;2024-01-30T03:35:46;100638.31;;;1.69;100.00
27334;BME280;14817;57.104;-2.094;2024-01-30T03:38:12;100651.50;;;1.83;100.00
27334;BME280;14817;57.104;-2.094;2024-01-30T03:40:39;100644.22;;;1.72;100.00
27334;BME280;14817;57.104;-2.094;2024-01-30T03:43:06;100646.50;;;1.78;100.00
27334;BME280;14817;57.104;-2.094;2024-01-30T03:45:32;100643.22;;;1.89;100.00
27334;BME280;14817;57.104;-2.094;2024-01-30T03:47:59;100628.59;;;1.69;100.00
27334;BME280;14817;57.104;-2.094;2024-01-30T03:50:26;100628.47;;;1.71;100.00
27334;BME280;14817;57.104;-2.094;2024-01-30T03:52:54;100620.53;;;1.42;100.00
27334;BME280;14817;57.104;-2.094;2024-01-30T03:55:21;100625.00;;;1.56;100.00
27334;BME280;14817;57.104;-2.094;2024-01-30T03:57:48;100626.97;;;1.52;100.00
27334;BME280;14817;57.104;-2.094;2024-01-30T04:00:14;100636.66;;;1.37;100.00
27334;BME280;14817;57.104;-2.094;2024-01-30T04:02:41;100646.25;;;1.38;100.00
27334;BME280;14817;57.104;-2.094;2024-01-30T04:05:08;100635.22;;;1.32;100.00
27334;BME280;14817;57.104;-2.094;2024-01-30T04:07:35;100632.88;;;1.41;100.00
27334;BME280;14817;57.104;-2.094;2024-01-30T04:10:02;100630.25;;;1.41;100.00
27334;BME280;14817;57.104;-2.094;2024-01-30T04:12:32;100624.50;;;1.35;100.00
27334;BME280;14817;57.104;-2.094;2024-01-30T04:14:59;100617.97;;;1.26;100.00
27334;BME280;14817;57.104;-2.094;2024-01-30T04:17:25;100636.44;;;1.40;100.00
27334;BME280;14817;57.104;-2.094;2024-01-30T04:19:52;100632.69;;;1.45;100.00
27334;BME280;14817;57.104;-2.094;2024-01-30T04:22:19;100622.63;;;1.37;100.00
27334;BME280;14817;57.104;-2.094;2024-01-30T04:24:46;100625.91;;;1.40;100.00
27334;BME280;14817;57.104;-2.094;2024-01-30T04:27:13;100624.66;;;1.32;100.00
27334;BME280;14817;57.104;-2.094;2024-01-30T04:29:39;100628.25;;;1.45;100.00
27334;BME280;14817;57.104;-2.094;2024-01-30T04:32:06;100626.84;;;1.39;100.00
27334;BME280;14817;57.104;-2.094;2024-01-30T04:34:33;100624.78;;;1.30;100.00
27334;BME280;14817;57.104;-2.094;2024-01-30T04:37:00;100635.81;;;1.37;100.00
27334;BME280;14817;57.104;-2.094;2024-01-30T04:39:26;100641.31;;;1.32;100.00
27334;BME280;14817;57.104;-2.094;2024-01-30T04:41:53;100635.88;;;1.35;100.00
27334;BME280;14817;57.104;-2.094;2024-01-30T04:44:20;100635.69;;;1.38;100.00
27334;BME280;14817;57.104;-2.094;2024-01-30T04:46:47;100635.53;;;1.41;100.00
27334;BME280;14817;57.104;-2.094;2024-01-30T04:49:14;100635.81;;;1.37;100.00
27334;BME280;14817;57.104;-2.094;2024-01-30T04:51:41;100650.50;;;1.41;100.00
27334;BME280;14817;57.104;-2.094;2024-01-30T04:54:08;100637.75;;;1.33;100.00
27334;BME280;14817;57.104;-2.094;2024-01-30T04:56:34;100634.91;;;1.22;100.00
27334;BME280;14817;57.104;-2.094;2024-01-30T04:59:02;100632.22;;;1.08;100.00
27334;BME280;14817;57.104;-2.094;2024-01-30T05:01:29;100639.19;;;1.09;100.00
27334;BME280;14817;57.104;-2.094;2024-01-30T05:03:56;100638.25;;;1.10;100.00
27334;BME280;14817;57.104;-2.094;2024-01-30T05:06:29;100641.56;;;1.13;100.00
27334;BME280;14817;57.104;-2.094;2024-01-30T05:08:56;100654.25;;;1.07;100.00
27334;BME280;14817;57.104;-2.094;2024-01-30T05:11:23;100656.72;;;1.10;100.00
27334;BME280;14817;57.104;-2.094;2024-01-30T05:13:50;100653.66;;;1.01;100.00
27334;BME280;14817;57.104;-2.094;2024-01-30T05:16:16;100653.25;;;0.93;100.00
27334;BME280;14817;57.104;-2.094;2024-01-30T05:18:43;100653.66;;;1.01;100.00
27334;BME280;14817;57.104;-2.094;2024-01-30T05:21:10;100639.72;;;0.99;100.00
27334;BME280;14817;57.104;-2.094;2024-01-30T05:23:37;100636.88;;;0.88;100.00
27334;BME280;14817;57.104;-2.094;2024-01-30T05:26:04;100645.03;;;0.84;100.00
27334;BME280;14817;57.104;-2.094;2024-01-30T05:28:31;100650.38;;;0.82;100.00
27334;BME280;14817;57.104;-2.094;2024-01-30T05:30:58;100653.03;;;0.82;100.00
27334;BME280;14817;57.104;-2.094;2024-01-30T05:33:25;100639.59;;;0.55;100.00
27334;BME280;14817;57.104;-2.094;2024-01-30T05:35:52;100657.28;;;0.69;100.00
27334;BME280;14817;57.104;-2.094;2024-01-30T05:38:21;100652.94;;;0.68;100.00
27334;BME280;14817;57.104;-2.094;2024-01-30T05:40:47;100657.19;;;0.70;100.00
27334;BME280;14817;57.104;-2.094;2024-01-30T05:43:14;100654.22;;;0.60;100.00
27334;BME280;14817;57.104;-2.094;2024-01-30T05:45:41;100651.75;;;0.57;100.00
27334;BME280;14817;57.104;-2.094;2024-01-30T05:48:08;100656.78;;;0.46;100.00
27334;BME280;14817;57.104;-2.094;2024-01-30T05:50:34;100659.25;;;0.49;100.00
27334;BME280;14817;57.104;-2.094;2024-01-30T05:53:01;100657.63;;;0.31;100.00
27334;BME280;14817;57.104;-2.094;2024-01-30T05:55:28;100657.09;;;0.40;100.00
27334;BME280;14817;57.104;-2.094;2024-01-30T05:57:55;100653.38;;;0.28;100.00
27334;BME280;14817;57.104;-2.094;2024-01-30T06:00:22;100658.97;;;0.22;100.00
27334;BME280;14817;57.104;-2.094;2024-01-30T06:02:48;100654.41;;;0.26;100.00
27334;BME280;14817;57.104;-2.094;2024-01-30T06:05:15;100652.44;;;0.29;100.00
27334;BME280;14817;57.104;-2.094;2024-01-30T06:07:42;100651.78;;;0.08;100.00
27334;BME280;14817;57.104;-2.094;2024-01-30T06:10:09;100670.16;;;0.10;100.00
27334;BME280;14817;57.104;-2.094;2024-01-30T06:12:36;100671.88;;;0.11;100.00
27334;BME280;14817;57.104;-2.094;2024-01-30T06:15:03;100670.84;;;0.13;100.00
27334;BME280;14817;57.104;-2.094;2024-01-30T06:17:29;100668.53;;;0.07;100.00
27334;BME280;14817;57.104;-2.094;2024-01-30T06:19:56;100669.63;;;0.03;100.00
27334;BME280;14817;57.104;-2.094;2024-01-30T06:22:23;100669.63;;;0.03;100.00
27334;BME280;14817;57.104;-2.094;2024-01-30T06:24:50;100671.16;;;0.07;100.00
27334;BME280;14817;57.104;-2.094;2024-01-30T06:27:17;100663.66;;;-0.01;100.00
27334;BME280;14817;57.104;-2.094;2024-01-30T06:29:46;100665.47;;;-0.01;100.00
27334;BME280;14817;57.104;-2.094;2024-01-30T06:32:13;100661.91;;;0.00;100.00
27334;BME280;14817;57.104;-2.094;2024-01-30T06:34:40;100661.72;;;0.03;100.00
27334;BME280;14817;57.104;-2.094;2024-01-30T06:37:07;100668.94;;;-0.01;100.00
27334;BME280;14817;57.104;-2.094;2024-01-30T06:39:34;100664.19;;;0.06;100.00
27334;BME280;14817;57.104;-2.094;2024-01-30T06:42:01;100652.13;;;0.02;100.00
27334;BME280;14817;57.104;-2.094;2024-01-30T06:44:28;100649.72;;;-0.03;100.00
27334;BME280;14817;57.104;-2.094;2024-01-30T06:46:58;100639.50;;;-0.25;100.00
27334;BME280;14817;57.104;-2.094;2024-01-30T06:49:25;100653.34;;;-0.21;100.00
27334;BME280;14817;57.104;-2.094;2024-01-30T06:51:52;100665.84;;;-0.09;100.00
27334;BME280;14817;57.104;-2.094;2024-01-30T06:54:19;100659.22;;;-0.16;100.00
27334;BME280;14817;57.104;-2.094;2024-01-30T06:56:45;100657.88;;;-0.07;100.00
27334;BME280;14817;57.104;-2.094;2024-01-30T06:59:12;100652.78;;;-0.10;100.00
27334;BME280;14817;57.104;-2.094;2024-01-30T07:01:39;100636.63;;;-0.20;100.00
27334;BME280;14817;57.104;-2.094;2024-01-30T07:04:06;100645.59;;;-0.24;100.00
27334;BME280;14817;57.104;-2.094;2024-01-30T07:06:32;100642.53;;;-0.32;100.00
27334;BME280;14817;57.104;-2.094;2024-01-30T07:08:59;100637.31;;;-0.16;100.00
27334;BME280;14817;57.104;-2.094;2024-01-30T07:11:26;100644.13;;;-0.12;100.00
27334;BME280;14817;57.104;-2.094;2024-01-30T07:13:53;100642.59;;;-0.16;100.00
27334;BME280;14817;57.104;-2.094;2024-01-30T07:16:20;100637.03;;;-0.28;100.00
27334;BME280;14817;57.104;-2.094;2024-01-30T07:18:47;100638.13;;;-0.32;100.00
27334;BME280;14817;57.104;-2.094;2024-01-30T07:21:14;100642.31;;;-0.28;100.00
27334;BME280;14817;57.104;-2.094;2024-01-30T07:23:42;100638.47;;;-0.22;100.00
27334;BME280;14817;57.104;-2.094;2024-01-30T07:26:09;100635.72;;;-0.36;100.00
27334;BME280;14817;57.104;-2.094;2024-01-30T07:28:35;100640.13;;;-0.37;100.00
27334;BME280;14817;57.104;-2.094;2024-01-30T07:31:02;100632.25;;;-0.37;100.00
27334;BME280;14817;57.104;-2.094;2024-01-30T07:33:30;100641.16;;;-0.39;100.00
27334;BME280;14817;57.104;-2.094;2024-01-30T07:35:56;100645.09;;;-0.48;100.00
27334;BME280;14817;57.104;-2.094;2024-01-30T07:38:24;100650.91;;;-0.42;100.00
27334;BME280;14817;57.104;-2.094;2024-01-30T07:40:50;100650.81;;;-0.40;100.00
27334;BME280;14817;57.104;-2.094;2024-01-30T07:43:17;100648.97;;;-0.38;100.00
27334;BME280;14817;57.104;-2.094;2024-01-30T07:45:44;100643.06;;;-0.43;100.00
27334;BME280;14817;57.104;-2.094;2024-01-30T07:48:11;100645.63;;;-0.42;100.00
27334;BME280;14817;57.104;-2.094;2024-01-30T07:50:38;100627.59;;;-0.49;100.00
27334;BME280;14817;57.104;-2.094;2024-01-30T07:53:05;100639.78;;;-0.47;100.00
27334;BME280;14817;57.104;-2.094;2024-01-30T07:55:31;100641.31;;;-0.43;100.00
27334;BME280;14817;57.104;-2.094;2024-01-30T07:57:59;100644.34;;;-0.50;100.00
27334;BME280;14817;57.104;-2.094;2024-01-30T08:00:26;100641.22;;;-0.41;100.00
27334;BME280;14817;57.104;-2.094;2024-01-30T08:02:55;100643.19;;;-0.45;100.00
27334;BME280;14817;57.104;-2.094;2024-01-30T08:05:23;100638.59;;;-0.58;100.00
27334;BME280;14817;57.104;-2.094;2024-01-30T08:07:50;100639.84;;;-0.48;100.00
27334;BME280;14817;57.104;-2.094;2024-01-30T08:10:17;100631.41;;;-0.55;100.00
27334;BME280;14817;57.104;-2.094;2024-01-30T08:12:47;100637.69;;;-0.57;100.00
27334;BME280;14817;57.104;-2.094;2024-01-30T08:15:14;100636.75;;;-0.56;100.00
27334;BME280;14817;57.104;-2.094;2024-01-30T08:17:41;100638.13;;;-0.49;100.00
27334;BME280;14817;57.104;-2.094;2024-01-30T08:20:07;100628.63;;;-0.52;100.00
27334;BME280;14817;57.104;-2.094;2024-01-30T08:22:38;100630.22;;;-0.49;100.00
27334;BME280;14817;57.104;-2.094;2024-01-30T08:25:05;100626.84;;;-0.51;100.00
27334;BME280;14817;57.104;-2.094;2024-01-30T08:27:32;100621.56;;;-0.51;100.00
27334;BME280;14817;57.104;-2.094;2024-01-30T08:29:59;100633.81;;;-0.50;100.00
27334;BME280;14817;57.104;-2.094;2024-01-30T08:32:26;100627.59;;;-0.49;100.00
27334;BME280;14817;57.104;-2.094;2024-01-30T08:34:53;100637.16;;;-0.47;100.00
27334;BME280;14817;57.104;-2.094;2024-01-30T08:37:20;100635.13;;;-0.42;100.00
27334;BME280;14817;57.104;-2.094;2024-01-30T08:39:46;100634.88;;;-0.37;100.00
27334;BME280;14817;57.104;-2.094;2024-01-30T08:42:13;100632.69;;;-0.29;100.00
27334;BME280;14817;57.104;-2.094;2024-01-30T08:44:40;100633.41;;;-0.09;100.00
27334;BME280;14817;57.104;-2.094;2024-01-30T08:47:07;100633.13;;;0.45;100.00
27334;BME280;14817;57.104;-2.094;2024-01-30T08:49:34;100638.03;;;0.82;100.00
27334;BME280;14817;57.104;-2.094;2024-01-30T08:52:01;100640.75;;;1.27;100.00
27334;BME280;14817;57.104;-2.094;2024-01-30T08:54:28;100641.31;;;1.32;100.00
27334;BME280;14817;57.104;-2.094;2024-01-30T08:56:54;100653.66;;;1.62;100.00
27334;BME280;14817;57.104;-2.094;2024-01-30T08:59:22;100673.25;;;1.58;100.00
27334;BME280;14817;57.104;-2.094;2024-01-30T09:01:49;100677.94;;;2.12;100.00
27334;BME280;14817;57.104;-2.094;2024-01-30T09:04:32;100686.91;;;2.09;100.00
27334;BME280;14817;57.104;-2.094;2024-01-30T09:06:59;100706.16;;;2.25;100.00
27334;BME280;14817;57.104;-2.094;2024-01-30T09:09:26;100714.44;;;2.34;100.00
27334;BME280;14817;57.104;-2.094;2024-01-30T09:11:53;100715.75;;;2.41;100.00
27334;BME280;14817;57.104;-2.094;2024-01-30T09:14:20;100721.81;;;2.43;100.00
27334;BME280;14817;57.104;-2.094;2024-01-30T09:16:47;100737.97;;;2.94;100.00
27334;BME280;14817;57.104;-2.094;2024-01-30T09:19:15;100752.06;;;3.22;100.00
27334;BME280;14817;57.104;-2.094;2024-01-30T09:21:42;100748.63;;;3.07;100.00
27334;BME280;14817;57.104;-2.094;2024-01-30T09:24:09;100754.53;;;3.25;100.00
27334;BME280;14817;57.104;-2.094;2024-01-30T09:26:35;100761.16;;;3.45;100.00
27334;BME280;14817;57.104;-2.094;2024-01-30T09:29:02;100760.69;;;4.05;100.00
27334;BME280;14817;57.104;-2.094;2024-01-30T09:31:29;100792.44;;;3.25;100.00
27334;BME280;14817;57.104;-2.094;2024-01-30T09:33:56;100779.75;;;3.98;100.00
27334;BME280;14817;57.104;-2.094;2024-01-30T09:36:23;100796.03;;;3.92;100.00
27334;BME280;14817;57.104;-2.094;2024-01-30T09:38:49;100800.13;;;4.10;100.00
27334;BME280;14817;57.104;-2.094;2024-01-30T09:41:16;100803.69;;;4.09;100.00
27334;BME280;14817;57.104;-2.094;2024-01-30T09:43:47;100811.34;;;4.14;100.00
27334;BME280;14817;57.104;-2.094;2024-01-30T09:46:15;100821.97;;;4.26;100.00
27334;BME280;14817;57.104;-2.094;2024-01-30T09:48:43;100812.06;;;4.03;100.00
27334;BME280;14817;57.104;-2.094;2024-01-30T09:51:11;100801.22;;;4.46;100.00
27334;BME280;14817;57.104;-2.094;2024-01-30T09:53:39;100813.50;;;4.60;100.00
27334;BME280;14817;57.104;-2.094;2024-01-30T09:56:06;100822.19;;;4.49;100.00
27334;BME280;14817;57.104;-2.094;2024-01-30T09:58:33;100831.53;;;4.42;100.00
27334;BME280;14817;57.104;-2.094;2024-01-30T10:01:00;100840.44;;;4.66;100.00
27334;BME280;14817;57.104;-2.094;2024-01-30T10:03:27;100854.75;;;5.02;100.00
27334;BME280;14817;57.104;-2.094;2024-01-30T10:05:53;100857.94;;;4.43;100.00
27334;BME280;14817;57.104;-2.094;2024-01-30T10:08:21;100818.78;;;4.85;100.00
27334;BME280;14817;57.104;-2.094;2024-01-30T10:10:51;100844.66;;;4.82;100.00
27334;BME280;14817;57.104;-2.094;2024-01-30T10:13:18;100832.72;;;4.63;100.00
27334;BME280;14817;57.104;-2.094;2024-01-30T10:15:44;100818.16;;;4.43;100.00
27334;BME280;14817;57.104;-2.094;2024-01-30T10:18:11;100857.50;;;4.49;100.00
27334;BME280;14817;57.104;-2.094;2024-01-30T10:20:38;100881.16;;;4.27;100.00
27334;BME280;14817;57.104;-2.094;2024-01-30T10:23:05;100892.00;;;4.88;100.00
27334;BME280;14817;57.104;-2.094;2024-01-30T10:25:32;100878.97;;;4.98;100.00
27334;BME280;14817;57.104;-2.094;2024-01-30T10:27:59;100886.19;;;4.96;100.00
27334;BME280;14817;57.104;-2.094;2024-01-30T10:30:27;100902.94;;;4.83;100.00
27334;BME280;14817;57.104;-2.094;2024-01-30T10:32:54;100971.19;;;4.81;100.00
27334;BME280;14817;57.104;-2.094;2024-01-30T10:35:21;100969.06;;;4.99;100.00
27334;BME280;14817;57.104;-2.094;2024-01-30T10:37:48;100975.56;;;4.95;100.00
27334;BME280;14817;57.104;-2.094;2024-01-30T10:40:15;101027.59;;;4.58;100.00
27334;BME280;14817;57.104;-2.094;2024-01-30T10:42:43;101055.84;;;5.11;100.00
27334;BME280;14817;57.104;-2.094;2024-01-30T10:45:14;101081.31;;;5.01;100.00
27334;BME280;14817;57.104;-2.094;2024-01-30T10:47:49;101120.13;;;5.17;100.00
27334;BME280;14817;57.104;-2.094;2024-01-30T10:50:16;101115.22;;;5.10;100.00
27334;BME280;14817;57.104;-2.094;2024-01-30T10:52:43;101143.63;;;4.96;100.00
27334;BME280;14817;57.104;-2.094;2024-01-30T10:55:10;101154.84;;;4.59;100.00
27334;BME280;14817;57.104;-2.094;2024-01-30T10:57:37;101080.34;;;4.89;100.00
27334;BME280;14817;57.104;-2.094;2024-01-30T11:00:05;101067.63;;;5.07;100.00
27334;BME280;14817;57.104;-2.094;2024-01-30T11:02:39;101055.03;;;4.84;100.00
27334;BME280;14817;57.104;-2.094;2024-01-30T11:05:07;101035.19;;;4.77;100.00
27334;BME280;14817;57.104;-2.094;2024-01-30T11:07:35;100973.16;;;4.65;100.00
27334;BME280;14817;57.104;-2.094;2024-01-30T11:10:02;100924.50;;;4.79;100.00
27334;BME280;14817;57.104;-2.094;2024-01-30T11:12:31;100977.31;;;4.69;100.00
27334;BME280;14817;57.104;-2.094;2024-01-30T11:15:12;101020.50;;;5.11;100.00
27334;BME280;14817;57.104;-2.094;2024-01-30T11:20:10;101083.75;;;4.64;100.00
27334;BME280;14817;57.104;-2.094;2024-01-30T11:22:40;101090.97;;;5.02;100.00
27334;BME280;14817;57.104;-2.094;2024-01-30T11:25:10;101128.88;;;4.50;100.00
27334;BME280;14817;57.104;-2.094;2024-01-30T11:27:37;101135.91;;;4.37;100.00
27334;BME280;14817;57.104;-2.094;2024-01-30T11:30:04;101129.31;;;4.29;100.00
27334;BME280;14817;57.104;-2.094;2024-01-30T11:32:31;101173.72;;;4.26;100.00
27334;BME280;14817;57.104;-2.094;2024-01-30T11:34:58;101170.22;;;4.40;100.00
27334;BME280;14817;57.104;-2.094;2024-01-30T11:37:25;101164.16;;;4.38;100.00
27334;BME280;14817;57.104;-2.094;2024-01-30T11:39:53;101169.63;;;4.49;100.00
27334;BME280;14817;57.104;-2.094;2024-01-30T11:42:23;101165.31;;;4.61;100.00
27334;BME280;14817;57.104;-2.094;2024-01-30T11:44:53;101172.28;;;4.35;100.00
27334;BME280;14817;57.104;-2.094;2024-01-30T11:47:20;101151.50;;;4.56;100.00
27334;BME280;14817;57.104;-2.094;2024-01-30T11:49:46;101167.44;;;4.56;100.00
27334;BME280;14817;57.104;-2.094;2024-01-30T11:52:13;101163.53;;;4.61;100.00
27334;BME280;14817;57.104;-2.094;2024-01-30T11:54:40;101166.56;;;4.69;100.00
27334;BME280;14817;57.104;-2.094;2024-01-30T11:57:07;101171.19;;;4.80;100.00
27334;BME280;14817;57.104;-2.094;2024-01-30T11:59:34;101179.16;;;4.66;100.00
27334;BME280;14817;57.104;-2.094;2024-01-30T12:02:00;101188.94;;;4.65;100.00
27334;BME280;14817;57.104;-2.094;2024-01-30T12:04:28;101185.06;;;4.57;100.00
27334;BME280;14817;57.104;-2.094;2024-01-30T12:06:55;101185.41;;;4.65;100.00
27334;BME280;14817;57.104;-2.094;2024-01-30T12:09:22;101179.34;;;4.63;100.00
27334;BME280;14817;57.104;-2.094;2024-01-30T12:11:49;101171.88;;;4.55;100.00
27334;BME280;14817;57.104;-2.094;2024-01-30T12:14:19;101175.47;;;4.54;100.00
27334;BME280;14817;57.104;-2.094;2024-01-30T12:16:49;101179.94;;;4.54;100.00
27334;BME280;14817;57.104;-2.094;2024-01-30T12:19:23;101171.88;;;4.55;100.00
27334;BME280;14817;57.104;-2.094;2024-01-30T12:21:57;101171.28;;;4.64;100.00
27334;BME280;14817;57.104;-2.094;2024-01-30T12:24:26;101170.84;;;4.58;100.00
27334;BME280;14817;57.104;-2.094;2024-01-30T12:26:56;101167.72;;;4.65;100.00
27334;BME280;14817;57.104;-2.094;2024-01-30T12:29:23;101170.91;;;4.70;100.00
27334;BME280;14817;57.104;-2.094;2024-01-30T12:31:52;101173.06;;;4.78;100.00
27334;BME280;14817;57.104;-2.094;2024-01-30T12:34:19;101164.25;;;4.78;100.00
27334;BME280;14817;57.104;-2.094;2024-01-30T12:36:47;101164.59;;;4.86;100.00
27334;BME280;14817;57.104;-2.094;2024-01-30T12:39:15;101161.47;;;4.94;100.00
27334;BME280;14817;57.104;-2.094;2024-01-30T12:41:42;101167.44;;;4.97;100.00